sensor_id;sensor_type;location;lat;lon;timestamp;temperature;humidity
24686;DHT22;12804;51.176;4.452;2022-08-25T00:01:13;23.80;99.90
24686;DHT22;12804;51.176;4.452;2022-08-25T00:03:40;23.70;99.90
24686;DHT22;12804;51.176;4.452;2022-08-25T00:06:07;23.60;99.90
24686;DHT22;12804;51.176;4.452;2022-08-25T00:08:33;23.60;99.90
24686;DHT22;12804;51.176;4.452;2022-08-25T00:11:04;23.60;99.90
24686;DHT22;12804;51.176;4.452;2022-08-25T00:13:30;23.50;99.90
24686;DHT22;12804;51.176;4.452;2022-08-25T00:15:57;23.60;99.90
24686;DHT22;12804;51.176;4.452;2022-08-25T00:18:23;23.50;99.90
24686;DHT22;12804;51.176;4.452;2022-08-25T00:20:49;23.60;99.90
24686;DHT22;12804;51.176;4.452;2022-08-25T00:23:16;23.50;99.90
24686;DHT22;12804;51.176;4.452;2022-08-25T00:25:42;23.40;99.90
24686;DHT22;12804;51.176;4.452;2022-08-25T00:28:08;23.40;99.90
24686;DHT22;12804;51.176;4.452;2022-08-25T00:30:35;23.40;99.90
24686;DHT22;12804;51.176;4.452;2022-08-25T00:33:01;23.40;99.90
24686;DHT22;12804;51.176;4.452;2022-08-25T00:35:28;23.30;99.90
24686;DHT22;12804;51.176;4.452;2022-08-25T00:37:54;23.30;99.90
24686;DHT22;12804;51.176;4.452;2022-08-25T00:40:21;23.40;99.90
24686;DHT22;12804;51.176;4.452;2022-08-25T00:42:47;23.30;99.90
24686;DHT22;12804;51.176;4.452;2022-08-25T00:45:13;23.20;99.90
24686;DHT22;12804;51.176;4.452;2022-08-25T00:47:40;23.20;99.90
24686;DHT22;12804;51.176;4.452;2022-08-25T00:50:08;23.20;99.90
24686;DHT22;12804;51.176;4.452;2022-08-25T00:52:41;23.20;99.90
24686;DHT22;12804;51.176;4.452;2022-08-25T00:55:24;23.10;99.90
24686;DHT22;12804;51.176;4.452;2022-08-25T00:57:56;23.00;99.90
24686;DHT22;12804;51.176;4.452;2022-08-25T01:00:29;23.00;99.90
24686;DHT22;12804;51.176;4.452;2022-08-25T01:02:56;22.90;99.90
24686;DHT22;12804;51.176;4.452;2022-08-25T01:05:23;22.90;99.90
24686;DHT22;12804;51.176;4.452;2022-08-25T01:07:50;22.80;99.90
24686;DHT22;12804;51.176;4.452;2022-08-25T01:10:18;22.80;99.90
24686;DHT22;12804;51.176;4.452;2022-08-25T01:12:47;22.80;99.90
24686;DHT22;12804;51.176;4.452;2022-08-25T01:15:13;22.80;99.90
24686;DHT22;12804;51.176;4.452;2022-08-25T01:17:54;22.80;99.90
24686;DHT22;12804;51.176;4.452;2022-08-25T01:20:24;22.70;99.90
24686;DHT22;12804;51.176;4.452;2022-08-25T01:22:50;22.70;99.90
24686;DHT22;12804;51.176;4.452;2022-08-25T01:28:03;22.60;99.90
24686;DHT22;12804;51.176;4.452;2022-08-25T01:30:29;22.60;99.90
24686;DHT22;12804;51.176;4.452;2022-08-25T01:32:55;22.40;99.90
24686;DHT22;12804;51.176;4.452;2022-08-25T01:35:21;22.50;99.90
24686;DHT22;12804;51.176;4.452;2022-08-25T01:37:47;22.40;99.90
24686;DHT22;12804;51.176;4.452;2022-08-25T01:40:13;22.40;99.90
24686;DHT22;12804;51.176;4.452;2022-08-25T01:45:20;22.30;99.90
24686;DHT22;12804;51.176;4.452;2022-08-25T01:47:46;22.40;99.90
24686;DHT22;12804;51.176;4.452;2022-08-25T01:50:14;22.40;99.90
24686;DHT22;12804;51.176;4.452;2022-08-25T01:55:29;22.20;99.90
24686;DHT22;12804;51.176;4.452;2022-08-25T01:58:26;22.20;99.90
24686;DHT22;12804;51.176;4.452;2022-08-25T02:00:53;22.10;99.90
24686;DHT22;12804;51.176;4.452;2022-08-25T02:03:21;22.00;99.90
24686;DHT22;12804;51.176;4.452;2022-08-25T02:05:47;22.10;99.90
24686;DHT22;12804;51.176;4.452;2022-08-25T02:08:13;22.00;99.90
24686;DHT22;12804;51.176;4.452;2022-08-25T02:10:40;22.00;99.90
24686;DHT22;12804;51.176;4.452;2022-08-25T02:13:06;22.00;99.90
24686;DHT22;12804;51.176;4.452;2022-08-25T02:15:33;22.00;99.90
24686;DHT22;12804;51.176;4.452;2022-08-25T02:18:00;22.00;99.90
24686;DHT22;12804;51.176;4.452;2022-08-25T02:20:25;21.90;99.90
24686;DHT22;12804;51.176;4.452;2022-08-25T02:22:52;21.70;99.90
24686;DHT22;12804;51.176;4.452;2022-08-25T02:25:18;21.70;99.90
24686;DHT22;12804;51.176;4.452;2022-08-25T02:27:44;21.70;99.90
24686;DHT22;12804;51.176;4.452;2022-08-25T02:30:11;21.60;99.90
24686;DHT22;12804;51.176;4.452;2022-08-25T02:32:38;21.60;99.90
24686;DHT22;12804;51.176;4.452;2022-08-25T02:35:05;21.60;99.90
24686;DHT22;12804;51.176;4.452;2022-08-25T02:37:31;21.60;99.90
24686;DHT22;12804;51.176;4.452;2022-08-25T02:39:57;21.60;99.90
24686;DHT22;12804;51.176;4.452;2022-08-25T02:42:25;21.50;99.90
24686;DHT22;12804;51.176;4.452;2022-08-25T02:44:51;21.50;99.90
24686;DHT22;12804;51.176;4.452;2022-08-25T02:47:19;21.40;99.90
24686;DHT22;12804;51.176;4.452;2022-08-25T02:49:44;21.40;99.90
24686;DHT22;12804;51.176;4.452;2022-08-25T02:52:10;21.40;99.90
24686;DHT22;12804;51.176;4.452;2022-08-25T02:54:36;21.30;99.90
24686;DHT22;12804;51.176;4.452;2022-08-25T02:57:02;21.30;99.90
24686;DHT22;12804;51.176;4.452;2022-08-25T02:59:28;21.30;99.90
24686;DHT22;12804;51.176;4.452;2022-08-25T03:01:53;21.20;99.90
24686;DHT22;12804;51.176;4.452;2022-08-25T03:04:19;21.20;99.90
24686;DHT22;12804;51.176;4.452;2022-08-25T03:06:45;21.20;99.90
24686;DHT22;12804;51.176;4.452;2022-08-25T03:09:12;21.20;99.90
24686;DHT22;12804;51.176;4.452;2022-08-25T03:11:38;21.20;99.90
24686;DHT22;12804;51.176;4.452;2022-08-25T03:14:08;21.10;99.90
24686;DHT22;12804;51.176;4.452;2022-08-25T03:16:35;21.10;99.90
24686;DHT22;12804;51.176;4.452;2022-08-25T03:19:02;21.10;99.90
24686;DHT22;12804;51.176;4.452;2022-08-25T03:21:28;21.20;99.90
24686;DHT22;12804;51.176;4.452;2022-08-25T03:23:55;21.00;99.90
24686;DHT22;12804;51.176;4.452;2022-08-25T03:26:22;20.90;99.90
24686;DHT22;12804;51.176;4.452;2022-08-25T03:29:07;20.90;99.90
24686;DHT22;12804;51.176;4.452;2022-08-25T03:31:34;21.00;99.90
24686;DHT22;12804;51.176;4.452;2022-08-25T03:34:00;20.90;99.90
24686;DHT22;12804;51.176;4.452;2022-08-25T03:36:27;21.00;99.90
24686;DHT22;12804;51.176;4.452;2022-08-25T03:38:53;21.00;99.90
24686;DHT22;12804;51.176;4.452;2022-08-25T03:41:24;20.90;99.90
24686;DHT22;12804;51.176;4.452;2022-08-25T03:43:51;21.00;99.90
24686;DHT22;12804;51.176;4.452;2022-08-25T03:46:27;21.00;99.90
24686;DHT22;12804;51.176;4.452;2022-08-25T03:48:54;21.00;99.90
24686;DHT22;12804;51.176;4.452;2022-08-25T03:51:30;20.90;99.90
24686;DHT22;12804;51.176;4.452;2022-08-25T03:53:57;21.00;99.90
24686;DHT22;12804;51.176;4.452;2022-08-25T03:56:23;21.00;99.90
24686;DHT22;12804;51.176;4.452;2022-08-25T03:58:50;21.00;99.90
24686;DHT22;12804;51.176;4.452;2022-08-25T04:01:16;20.90;99.90
24686;DHT22;12804;51.176;4.452;2022-08-25T04:03:42;20.90;99.90
24686;DHT22;12804;51.176;4.452;2022-08-25T04:06:08;20.90;99.90
24686;DHT22;12804;51.176;4.452;2022-08-25T04:08:35;21.00;99.90
24686;DHT22;12804;51.176;4.452;2022-08-25T04:11:09;21.00;99.90
24686;DHT22;12804;51.176;4.452;2022-08-25T04:13:36;21.00;99.90
24686;DHT22;12804;51.176;4.452;2022-08-25T04:16:09;21.00;99.90
24686;DHT22;12804;51.176;4.452;2022-08-25T04:18:35;21.00;99.90
24686;DHT22;12804;51.176;4.452;2022-08-25T04:21:05;20.90;99.90
24686;DHT22;12804;51.176;4.452;2022-08-25T04:23:31;20.90;99.90
24686;DHT22;12804;51.176;4.452;2022-08-25T04:25:57;20.90;99.90
24686;DHT22;12804;51.176;4.452;2022-08-25T04:28:26;20.90;99.90
24686;DHT22;12804;51.176;4.452;2022-08-25T04:30:52;20.90;99.90
24686;DHT22;12804;51.176;4.452;2022-08-25T04:33:18;20.90;99.90
24686;DHT22;12804;51.176;4.452;2022-08-25T04:35:47;20.90;99.90
24686;DHT22;12804;51.176;4.452;2022-08-25T04:38:14;20.90;99.90
24686;DHT22;12804;51.176;4.452;2022-08-25T04:40:39;20.90;99.90
24686;DHT22;12804;51.176;4.452;2022-08-25T04:43:05;20.80;99.90
24686;DHT22;12804;51.176;4.452;2022-08-25T04:45:35;20.80;99.90
24686;DHT22;12804;51.176;4.452;2022-08-25T04:48:00;20.80;99.90
24686;DHT22;12804;51.176;4.452;2022-08-25T04:50:26;20.90;99.90
24686;DHT22;12804;51.176;4.452;2022-08-25T04:52:52;20.80;99.90
24686;DHT22;12804;51.176;4.452;2022-08-25T04:55:18;20.90;99.90
24686;DHT22;12804;51.176;4.452;2022-08-25T04:57:47;20.90;99.90
24686;DHT22;12804;51.176;4.452;2022-08-25T05:00:14;20.90;99.90
24686;DHT22;12804;51.176;4.452;2022-08-25T05:02:40;20.90;99.90
24686;DHT22;12804;51.176;4.452;2022-08-25T05:05:06;20.90;99.90
24686;DHT22;12804;51.176;4.452;2022-08-25T05:07:32;20.90;99.90
24686;DHT22;12804;51.176;4.452;2022-08-25T05:09:57;21.00;99.90
24686;DHT22;12804;51.176;4.452;2022-08-25T05:12:23;21.00;99.90
24686;DHT22;12804;51.176;4.452;2022-08-25T05:14:51;20.90;99.90
24686;DHT22;12804;51.176;4.452;2022-08-25T05:17:18;21.00;99.90
24686;DHT22;12804;51.176;4.452;2022-08-25T05:19:44;21.10;99.90
24686;DHT22;12804;51.176;4.452;2022-08-25T05:22:09;21.00;99.90
24686;DHT22;12804;51.176;4.452;2022-08-25T05:24:35;21.10;99.90
24686;DHT22;12804;51.176;4.452;2022-08-25T05:27:04;21.10;99.90
24686;DHT22;12804;51.176;4.452;2022-08-25T05:29:31;21.00;99.90
24686;DHT22;12804;51.176;4.452;2022-08-25T05:31:56;21.10;99.90
24686;DHT22;12804;51.176;4.452;2022-08-25T05:34:22;21.10;99.90
24686;DHT22;12804;51.176;4.452;2022-08-25T05:36:49;21.10;99.90
24686;DHT22;12804;51.176;4.452;2022-08-25T05:39:15;21.20;99.90
24686;DHT22;12804;51.176;4.452;2022-08-25T05:41:41;21.20;99.90
24686;DHT22;12804;51.176;4.452;2022-08-25T05:44:07;21.20;99.90
24686;DHT22;12804;51.176;4.452;2022-08-25T05:46:33;21.30;99.90
24686;DHT22;12804;51.176;4.452;2022-08-25T05:48:59;21.40;99.90
24686;DHT22;12804;51.176;4.452;2022-08-25T05:51:25;21.40;99.90
24686;DHT22;12804;51.176;4.452;2022-08-25T05:53:51;21.50;99.90
24686;DHT22;12804;51.176;4.452;2022-08-25T05:56:18;21.50;99.90
24686;DHT22;12804;51.176;4.452;2022-08-25T05:58:44;21.60;99.90
24686;DHT22;12804;51.176;4.452;2022-08-25T06:01:19;21.60;99.90
24686;DHT22;12804;51.176;4.452;2022-08-25T06:04:03;21.60;99.90
24686;DHT22;12804;51.176;4.452;2022-08-25T06:06:29;21.70;99.90
24686;DHT22;12804;51.176;4.452;2022-08-25T06:08:55;21.70;99.90
24686;DHT22;12804;51.176;4.452;2022-08-25T06:11:24;21.80;99.90
24686;DHT22;12804;51.176;4.452;2022-08-25T06:13:50;21.90;99.90
24686;DHT22;12804;51.176;4.452;2022-08-25T06:16:15;22.00;99.90
24686;DHT22;12804;51.176;4.452;2022-08-25T06:18:41;22.00;99.90
24686;DHT22;12804;51.176;4.452;2022-08-25T06:21:12;22.10;99.90
24686;DHT22;12804;51.176;4.452;2022-08-25T06:23:39;22.20;99.90
24686;DHT22;12804;51.176;4.452;2022-08-25T06:26:05;22.30;99.90
24686;DHT22;12804;51.176;4.452;2022-08-25T06:28:31;22.30;99.90
24686;DHT22;12804;51.176;4.452;2022-08-25T06:30:58;22.40;99.90
24686;DHT22;12804;51.176;4.452;2022-08-25T06:33:24;22.40;99.90
24686;DHT22;12804;51.176;4.452;2022-08-25T06:35:53;22.40;99.90
24686;DHT22;12804;51.176;4.452;2022-08-25T06:38:21;22.40;99.90
24686;DHT22;12804;51.176;4.452;2022-08-25T06:40:47;22.50;99.90
24686;DHT22;12804;51.176;4.452;2022-08-25T06:43:13;22.60;99.90
24686;DHT22;12804;51.176;4.452;2022-08-25T06:45:40;22.70;99.90
24686;DHT22;12804;51.176;4.452;2022-08-25T06:48:09;22.80;99.90
24686;DHT22;12804;51.176;4.452;2022-08-25T06:50:37;22.90;99.90
24686;DHT22;12804;51.176;4.452;2022-08-25T06:53:04;23.10;99.90
24686;DHT22;12804;51.176;4.452;2022-08-25T06:55:30;23.30;99.90
24686;DHT22;12804;51.176;4.452;2022-08-25T06:57:56;23.50;99.90
24686;DHT22;12804;51.176;4.452;2022-08-25T07:00:22;23.40;99.90
24686;DHT22;12804;51.176;4.452;2022-08-25T07:02:48;23.60;99.90
24686;DHT22;12804;51.176;4.452;2022-08-25T07:05:14;23.60;99.90
24686;DHT22;12804;51.176;4.452;2022-08-25T07:07:39;23.60;99.90
24686;DHT22;12804;51.176;4.452;2022-08-25T07:10:06;23.60;99.90
24686;DHT22;12804;51.176;4.452;2022-08-25T07:12:32;24.00;99.90
24686;DHT22;12804;51.176;4.452;2022-08-25T07:14:57;24.20;99.90
24686;DHT22;12804;51.176;4.452;2022-08-25T07:17:23;24.40;99.90
24686;DHT22;12804;51.176;4.452;2022-08-25T07:19:49;24.70;99.90
24686;DHT22;12804;51.176;4.452;2022-08-25T07:22:15;25.00;99.90
24686;DHT22;12804;51.176;4.452;2022-08-25T07:24:40;25.20;99.90
24686;DHT22;12804;51.176;4.452;2022-08-25T07:27:06;25.30;99.90
24686;DHT22;12804;51.176;4.452;2022-08-25T07:29:32;25.10;99.90
24686;DHT22;12804;51.176;4.452;2022-08-25T07:32:02;25.20;99.90
24686;DHT22;12804;51.176;4.452;2022-08-25T07:34:28;25.00;99.90
24686;DHT22;12804;51.176;4.452;2022-08-25T07:37:12;25.20;99.90
24686;DHT22;12804;51.176;4.452;2022-08-25T07:39:38;25.40;99.90
24686;DHT22;12804;51.176;4.452;2022-08-25T07:42:07;25.20;99.90
24686;DHT22;12804;51.176;4.452;2022-08-25T07:44:33;25.40;99.90
24686;DHT22;12804;51.176;4.452;2022-08-25T07:46:59;25.60;99.90
24686;DHT22;12804;51.176;4.452;2022-08-25T07:49:26;25.70;99.90
24686;DHT22;12804;51.176;4.452;2022-08-25T07:51:53;25.60;99.90
24686;DHT22;12804;51.176;4.452;2022-08-25T07:54:20;25.30;99.90
24686;DHT22;12804;51.176;4.452;2022-08-25T07:56:46;25.20;99.90
24686;DHT22;12804;51.176;4.452;2022-08-25T07:59:12;25.30;99.90
24686;DHT22;12804;51.176;4.452;2022-08-25T08:01:38;25.40;99.90
24686;DHT22;12804;51.176;4.452;2022-08-25T08:04:04;25.50;99.90
24686;DHT22;12804;51.176;4.452;2022-08-25T08:06:33;25.40;99.90
24686;DHT22;12804;51.176;4.452;2022-08-25T08:08:59;25.40;99.90
24686;DHT22;12804;51.176;4.452;2022-08-25T08:11:29;25.30;99.90
24686;DHT22;12804;51.176;4.452;2022-08-25T08:13:56;25.30;99.90
24686;DHT22;12804;51.176;4.452;2022-08-25T08:16:25;25.40;99.90
24686;DHT22;12804;51.176;4.452;2022-08-25T08:18:52;25.30;99.90
24686;DHT22;12804;51.176;4.452;2022-08-25T08:21:24;25.50;99.90
24686;DHT22;12804;51.176;4.452;2022-08-25T08:23:52;25.80;99.90
24686;DHT22;12804;51.176;4.452;2022-08-25T08:26:18;26.20;99.90
24686;DHT22;12804;51.176;4.452;2022-08-25T08:28:44;26.50;99.90
24686;DHT22;12804;51.176;4.452;2022-08-25T08:31:13;26.70;99.90
24686;DHT22;12804;51.176;4.452;2022-08-25T08:33:44;26.70;99.90
24686;DHT22;12804;51.176;4.452;2022-08-25T08:36:11;26.70;99.90
24686;DHT22;12804;51.176;4.452;2022-08-25T08:38:40;26.40;99.90
24686;DHT22;12804;51.176;4.452;2022-08-25T08:47:49;26.20;99.90
24686;DHT22;12804;51.176;4.452;2022-08-25T08:50:42;26.20;99.90
24686;DHT22;12804;51.176;4.452;2022-08-25T08:53:15;26.20;99.90
24686;DHT22;12804;51.176;4.452;2022-08-25T08:56:06;26.20;99.90
24686;DHT22;12804;51.176;4.452;2022-08-25T08:58:49;26.30;99.90
24686;DHT22;12804;51.176;4.452;2022-08-25T09:06:48;26.40;99.90
24686;DHT22;12804;51.176;4.452;2022-08-25T09:09:21;26.50;99.90
24686;DHT22;12804;51.176;4.452;2022-08-25T09:25:48;27.30;99.90
24686;DHT22;12804;51.176;4.452;2022-08-25T09:28:28;27.30;99.90
24686;DHT22;12804;51.176;4.452;2022-08-25T09:33:47;27.80;99.90
24686;DHT22;12804;51.176;4.452;2022-08-25T09:36:13;27.70;99.90
24686;DHT22;12804;51.176;4.452;2022-08-25T09:38:39;27.70;99.90
24686;DHT22;12804;51.176;4.452;2022-08-25T09:41:06;27.90;99.90
24686;DHT22;12804;51.176;4.452;2022-08-25T09:43:35;28.10;99.90
24686;DHT22;12804;51.176;4.452;2022-08-25T09:48:53;28.30;99.90
24686;DHT22;12804;51.176;4.452;2022-08-25T09:51:23;28.40;99.90
24686;DHT22;12804;51.176;4.452;2022-08-25T09:56:55;28.60;99.90
24686;DHT22;12804;51.176;4.452;2022-08-25T10:01:57;29.00;99.90
24686;DHT22;12804;51.176;4.452;2022-08-25T10:04:32;29.30;99.90
24686;DHT22;12804;51.176;4.452;2022-08-25T10:06:59;29.40;99.90
24686;DHT22;12804;51.176;4.452;2022-08-25T10:09:34;29.30;99.90
24686;DHT22;12804;51.176;4.452;2022-08-25T10:12:21;29.60;99.90
24686;DHT22;12804;51.176;4.452;2022-08-25T10:14:50;29.80;99.90
24686;DHT22;12804;51.176;4.452;2022-08-25T10:19:52;29.90;99.90
24686;DHT22;12804;51.176;4.452;2022-08-25T10:22:24;29.80;99.90
24686;DHT22;12804;51.176;4.452;2022-08-25T10:24:58;29.90;99.90
24686;DHT22;12804;51.176;4.452;2022-08-25T10:30:28;30.30;99.90
24686;DHT22;12804;51.176;4.452;2022-08-25T10:33:14;30.60;99.90
24686;DHT22;12804;51.176;4.452;2022-08-25T10:38:58;31.30;99.90
24686;DHT22;12804;51.176;4.452;2022-08-25T10:41:43;31.60;99.90
24686;DHT22;12804;51.176;4.452;2022-08-25T10:44:37;31.80;99.90
24686;DHT22;12804;51.176;4.452;2022-08-25T10:47:56;32.10;99.90
24686;DHT22;12804;51.176;4.452;2022-08-25T10:50:57;33.30;99.90
24686;DHT22;12804;51.176;4.452;2022-08-25T10:56:17;34.30;91.90
24686;DHT22;12804;51.176;4.452;2022-08-25T11:04:11;37.00;74.10
24686;DHT22;12804;51.176;4.452;2022-08-25T11:06:49;37.00;72.50
24686;DHT22;12804;51.176;4.452;2022-08-25T11:09:19;37.70;66.90
24686;DHT22;12804;51.176;4.452;2022-08-25T11:12:03;37.60;63.80
24686;DHT22;12804;51.176;4.452;2022-08-25T11:14:40;37.30;63.10
24686;DHT22;12804;51.176;4.452;2022-08-25T11:17:23;37.70;60.50
24686;DHT22;12804;51.176;4.452;2022-08-25T11:19:56;37.30;61.80
24686;DHT22;12804;51.176;4.452;2022-08-25T11:22:41;38.00;60.30
24686;DHT22;12804;51.176;4.452;2022-08-25T11:25:44;37.50;58.50
24686;DHT22;12804;51.176;4.452;2022-08-25T11:28:16;38.00;58.40
24686;DHT22;12804;51.176;4.452;2022-08-25T11:30:43;38.30;56.20
24686;DHT22;12804;51.176;4.452;2022-08-25T11:33:13;38.90;57.10
24686;DHT22;12804;51.176;4.452;2022-08-25T11:35:42;39.50;54.30
24686;DHT22;12804;51.176;4.452;2022-08-25T11:41:04;37.90;54.70
24686;DHT22;12804;51.176;4.452;2022-08-25T11:44:09;37.90;52.90
24686;DHT22;12804;51.176;4.452;2022-08-25T11:55:20;38.40;50.70
24686;DHT22;12804;51.176;4.452;2022-08-25T11:57:49;40.30;49.90
24686;DHT22;12804;51.176;4.452;2022-08-25T12:00:48;42.10;47.80
24686;DHT22;12804;51.176;4.452;2022-08-25T12:08:54;40.60;44.30
24686;DHT22;12804;51.176;4.452;2022-08-25T12:11:43;40.30;45.40
24686;DHT22;12804;51.176;4.452;2022-08-25T12:29:41;39.80;45.50
24686;DHT22;12804;51.176;4.452;2022-08-25T12:37:24;45.10;40.60
24686;DHT22;12804;51.176;4.452;2022-08-25T12:42:37;47.40;36.40
24686;DHT22;12804;51.176;4.452;2022-08-25T12:47:46;45.70;36.20
24686;DHT22;12804;51.176;4.452;2022-08-25T12:53:08;44.80;37.10
24686;DHT22;12804;51.176;4.452;2022-08-25T12:55:37;46.00;36.70
24686;DHT22;12804;51.176;4.452;2022-08-25T12:58:05;46.70;34.60
24686;DHT22;12804;51.176;4.452;2022-08-25T13:09:48;39.70;40.30
24686;DHT22;12804;51.176;4.452;2022-08-25T13:14:54;43.80;38.40
24686;DHT22;12804;51.176;4.452;2022-08-25T13:17:31;44.40;35.40
24686;DHT22;12804;51.176;4.452;2022-08-25T13:20:13;41.40;38.80
24686;DHT22;12804;51.176;4.452;2022-08-25T13:22:39;40.30;39.60
24686;DHT22;12804;51.176;4.452;2022-08-25T13:25:05;39.20;41.10
24686;DHT22;12804;51.176;4.452;2022-08-25T13:27:33;39.00;42.10
24686;DHT22;12804;51.176;4.452;2022-08-25T13:30:00;38.60;49.50
24686;DHT22;12804;51.176;4.452;2022-08-25T13:32:31;37.70;52.30
24686;DHT22;12804;51.176;4.452;2022-08-25T13:35:14;37.10;53.70
24686;DHT22;12804;51.176;4.452;2022-08-25T13:37:40;36.60;55.80
24686;DHT22;12804;51.176;4.452;2022-08-25T13:40:10;36.20;57.70
24686;DHT22;12804;51.176;4.452;2022-08-25T13:42:39;35.80;59.00
24686;DHT22;12804;51.176;4.452;2022-08-25T13:45:06;35.10;61.10
24686;DHT22;12804;51.176;4.452;2022-08-25T13:47:39;34.30;64.00
24686;DHT22;12804;51.176;4.452;2022-08-25T13:50:33;34.10;66.20
24686;DHT22;12804;51.176;4.452;2022-08-25T13:53:35;34.30;67.70
24686;DHT22;12804;51.176;4.452;2022-08-25T13:55:59;35.60;66.30
24686;DHT22;12804;51.176;4.452;2022-08-25T13:58:35;36.50;63.40
24686;DHT22;12804;51.176;4.452;2022-08-25T14:01:10;37.60;61.70
24686;DHT22;12804;51.176;4.452;2022-08-25T14:03:40;38.70;59.50
24686;DHT22;12804;51.176;4.452;2022-08-25T14:06:21;38.40;59.50
24686;DHT22;12804;51.176;4.452;2022-08-25T14:14:03;38.50;60.00
24686;DHT22;12804;51.176;4.452;2022-08-25T14:16:33;37.90;61.40
24686;DHT22;12804;51.176;4.452;2022-08-25T14:19:01;37.50;61.80
24686;DHT22;12804;51.176;4.452;2022-08-25T14:21:31;37.00;63.50
24686;DHT22;12804;51.176;4.452;2022-08-25T14:23:58;37.70;63.50
24686;DHT22;12804;51.176;4.452;2022-08-25T14:26:25;39.00;59.60
24686;DHT22;12804;51.176;4.452;2022-08-25T14:28:51;40.60;57.00
24686;DHT22;12804;51.176;4.452;2022-08-25T14:31:32;41.70;54.00
24686;DHT22;12804;51.176;4.452;2022-08-25T14:36:25;40.20;55.20
24686;DHT22;12804;51.176;4.452;2022-08-25T14:38:53;39.10;56.20
24686;DHT22;12804;51.176;4.452;2022-08-25T14:41:20;38.40;58.20
24686;DHT22;12804;51.176;4.452;2022-08-25T14:43:46;38.00;58.90
24686;DHT22;12804;51.176;4.452;2022-08-25T14:46:20;38.30;58.60
24686;DHT22;12804;51.176;4.452;2022-08-25T14:48:52;38.70;58.10
24686;DHT22;12804;51.176;4.452;2022-08-25T14:51:21;38.90;56.90
24686;DHT22;12804;51.176;4.452;2022-08-25T14:53:47;39.50;56.60
24686;DHT22;12804;51.176;4.452;2022-08-25T14:56:13;40.60;54.50
24686;DHT22;12804;51.176;4.452;2022-08-25T14:58:40;41.20;53.50
24686;DHT22;12804;51.176;4.452;2022-08-25T15:01:06;40.90;52.20
24686;DHT22;12804;51.176;4.452;2022-08-25T15:03:41;39.80;53.40
24686;DHT22;12804;51.176;4.452;2022-08-25T15:06:10;38.40;56.40
24686;DHT22;12804;51.176;4.452;2022-08-25T15:08:37;37.70;59.50
24686;DHT22;12804;51.176;4.452;2022-08-25T15:11:21;37.10;62.50
24686;DHT22;12804;51.176;4.452;2022-08-25T15:13:47;36.70;65.90
24686;DHT22;12804;51.176;4.452;2022-08-25T15:16:34;36.80;67.10
24686;DHT22;12804;51.176;4.452;2022-08-25T15:19:07;37.00;67.90
24686;DHT22;12804;51.176;4.452;2022-08-25T15:21:34;37.40;67.00
24686;DHT22;12804;51.176;4.452;2022-08-25T15:24:00;37.50;67.00
24686;DHT22;12804;51.176;4.452;2022-08-25T15:26:26;37.50;65.20
24686;DHT22;12804;51.176;4.452;2022-08-25T15:28:52;37.30;64.20
24686;DHT22;12804;51.176;4.452;2022-08-25T15:31:19;37.20;62.50
24686;DHT22;12804;51.176;4.452;2022-08-25T15:33:46;37.50;64.10
24686;DHT22;12804;51.176;4.452;2022-08-25T15:36:13;37.70;65.20
24686;DHT22;12804;51.176;4.452;2022-08-25T15:38:41;37.80;67.50
24686;DHT22;12804;51.176;4.452;2022-08-25T15:41:09;37.10;72.20
24686;DHT22;12804;51.176;4.452;2022-08-25T15:43:36;36.80;74.20
24686;DHT22;12804;51.176;4.452;2022-08-25T15:46:03;36.80;75.30
24686;DHT22;12804;51.176;4.452;2022-08-25T15:48:30;36.60;76.70
24686;DHT22;12804;51.176;4.452;2022-08-25T15:50:56;36.60;78.10
24686;DHT22;12804;51.176;4.452;2022-08-25T15:53:27;36.60;78.70
24686;DHT22;12804;51.176;4.452;2022-08-25T15:55:54;36.30;80.90
24686;DHT22;12804;51.176;4.452;2022-08-25T15:58:22;36.30;82.40
24686;DHT22;12804;51.176;4.452;2022-08-25T16:00:48;36.30;82.40
24686;DHT22;12804;51.176;4.452;2022-08-25T16:03:14;36.00;82.50
24686;DHT22;12804;51.176;4.452;2022-08-25T16:05:42;35.40;84.70
24686;DHT22;12804;51.176;4.452;2022-08-25T16:08:08;34.60;87.30
24686;DHT22;12804;51.176;4.452;2022-08-25T16:10:40;33.70;91.00
24686;DHT22;12804;51.176;4.452;2022-08-25T16:13:07;32.90;93.50
24686;DHT22;12804;51.176;4.452;2022-08-25T16:15:33;32.50;95.90
24686;DHT22;12804;51.176;4.452;2022-08-25T16:18:01;32.10;98.60
24686;DHT22;12804;51.176;4.452;2022-08-25T16:20:29;31.70;99.90
24686;DHT22;12804;51.176;4.452;2022-08-25T16:22:55;31.40;99.90
24686;DHT22;12804;51.176;4.452;2022-08-25T16:25:22;31.10;99.90
24686;DHT22;12804;51.176;4.452;2022-08-25T16:27:48;31.20;99.90
24686;DHT22;12804;51.176;4.452;2022-08-25T16:30:16;31.50;99.90
24686;DHT22;12804;51.176;4.452;2022-08-25T16:32:42;31.20;99.90
24686;DHT22;12804;51.176;4.452;2022-08-25T16:35:08;31.40;99.90
24686;DHT22;12804;51.176;4.452;2022-08-25T16:37:34;31.90;99.90
24686;DHT22;12804;51.176;4.452;2022-08-25T16:40:01;32.60;99.90
24686;DHT22;12804;51.176;4.452;2022-08-25T16:42:27;32.50;99.90
24686;DHT22;12804;51.176;4.452;2022-08-25T16:44:53;32.00;99.90
24686;DHT22;12804;51.176;4.452;2022-08-25T16:47:19;31.60;99.90
24686;DHT22;12804;51.176;4.452;2022-08-25T16:49:45;31.20;99.90
24686;DHT22;12804;51.176;4.452;2022-08-25T16:52:12;30.80;99.90
24686;DHT22;12804;51.176;4.452;2022-08-25T16:54:57;30.40;99.90
24686;DHT22;12804;51.176;4.452;2022-08-25T16:57:39;29.80;99.90
24686;DHT22;12804;51.176;4.452;2022-08-25T17:00:08;29.30;99.90
24686;DHT22;12804;51.176;4.452;2022-08-25T17:02:36;29.00;99.90
24686;DHT22;12804;51.176;4.452;2022-08-25T17:05:03;28.90;99.90
24686;DHT22;12804;51.176;4.452;2022-08-25T17:07:31;28.80;99.90
24686;DHT22;12804;51.176;4.452;2022-08-25T17:09:56;28.60;99.90
24686;DHT22;12804;51.176;4.452;2022-08-25T17:12:24;28.40;99.90
24686;DHT22;12804;51.176;4.452;2022-08-25T17:14:51;28.30;99.90
24686;DHT22;12804;51.176;4.452;2022-08-25T17:17:17;28.20;99.90
24686;DHT22;12804;51.176;4.452;2022-08-25T17:19:43;28.10;99.90
24686;DHT22;12804;51.176;4.452;2022-08-25T17:22:09;27.90;99.90
24686;DHT22;12804;51.176;4.452;2022-08-25T17:24:39;27.70;99.90
24686;DHT22;12804;51.176;4.452;2022-08-25T17:27:06;27.40;99.90
24686;DHT22;12804;51.176;4.452;2022-08-25T17:29:31;27.20;99.90
24686;DHT22;12804;51.176;4.452;2022-08-25T17:31:59;27.00;99.90
24686;DHT22;12804;51.176;4.452;2022-08-25T17:34:25;26.90;99.90
24686;DHT22;12804;51.176;4.452;2022-08-25T17:36:51;26.80;99.90
24686;DHT22;12804;51.176;4.452;2022-08-25T17:39:18;26.60;99.90
24686;DHT22;12804;51.176;4.452;2022-08-25T17:41:44;26.60;99.90
24686;DHT22;12804;51.176;4.452;2022-08-25T17:44:11;26.50;99.90
24686;DHT22;12804;51.176;4.452;2022-08-25T17:46:39;26.50;99.90
24686;DHT22;12804;51.176;4.452;2022-08-25T17:49:05;26.50;99.90
24686;DHT22;12804;51.176;4.452;2022-08-25T17:51:32;26.30;99.90